<?xml version="1.0" encoding="UTF-8" standalone="no" ?>
<gpx xmlns="http://www.topografix.com/GPX/1/1" xmlns:xsi="http://www.w3.org/2001/XMLSchema-instance" xsi:schemaLocation="http://www.topografix.com/GPX/1/1 http://www.topografix.com/GPX/1/1/gpx.xsd" version="1.1" creator="VisuGPX - https://www.visugpx.com">
  <metadata>
    <name>Triton 2026 6kms</name>
    <desc><![CDATA[Parcours VTT 6kms pour les petits sportifs (8-10ans)]]></desc>
  </metadata>
  <wpt lat="45.40535" lon="5.54615">
    <ele>482.3</ele>
    <name><![CDATA[Ravitaillement]]></name>
    <desc><![CDATA[]]></desc>
  </wpt>
  <trk>
    <name><![CDATA[TRITON 2026  - VTT 6Kms-23927163]]></name>
    <trkseg>
      <trkpt lat="45.41286" lon="5.55585">
        <ele>470</ele>
        <time>2026-05-25T08:10:45Z</time>
      </trkpt>
      <trkpt lat="45.41255" lon="5.55585">
        <ele>471</ele>
        <time>2026-05-25T08:11:26Z</time>
      </trkpt>
      <trkpt lat="45.41247" lon="5.55577">
        <ele>471</ele>
        <time>2026-05-25T08:11:39Z</time>
      </trkpt>
      <trkpt lat="45.41222" lon="5.55543">
        <ele>471</ele>
        <time>2026-05-25T08:12:26Z</time>
      </trkpt>
      <trkpt lat="45.41201" lon="5.55526">
        <ele>471</ele>
        <time>2026-05-25T08:12:58Z</time>
      </trkpt>
      <trkpt lat="45.412" lon="5.55524">
        <ele>471</ele>
        <time>2026-05-25T08:13:00Z</time>
      </trkpt>
      <trkpt lat="45.41205" lon="5.55512">
        <ele>471</ele>
        <time>2026-05-25T08:13:13Z</time>
      </trkpt>
      <trkpt lat="45.41207" lon="5.55503">
        <ele>471</ele>
        <time>2026-05-25T08:13:22Z</time>
      </trkpt>
      <trkpt lat="45.41239" lon="5.55457">
        <ele>470</ele>
        <time>2026-05-25T08:14:23Z</time>
      </trkpt>
      <trkpt lat="45.41243" lon="5.55452">
        <ele>470</ele>
        <time>2026-05-25T08:14:30Z</time>
      </trkpt>
      <trkpt lat="45.41286" lon="5.55412">
        <ele>467</ele>
        <time>2026-05-25T08:15:38Z</time>
      </trkpt>
      <trkpt lat="45.41293" lon="5.55398">
        <ele>466</ele>
        <time>2026-05-25T08:15:54Z</time>
      </trkpt>
      <trkpt lat="45.41292" lon="5.55312">
        <ele>465</ele>
        <time>2026-05-25T08:17:15Z</time>
      </trkpt>
      <trkpt lat="45.41296" lon="5.55253">
        <ele>464</ele>
        <time>2026-05-25T08:18:10Z</time>
      </trkpt>
      <trkpt lat="45.41292" lon="5.5521">
        <ele>464</ele>
        <time>2026-05-25T08:18:51Z</time>
      </trkpt>
      <trkpt lat="45.41287" lon="5.5519">
        <ele>464</ele>
        <time>2026-05-25T08:19:11Z</time>
      </trkpt>
      <trkpt lat="45.41287" lon="5.55183">
        <ele>464</ele>
        <time>2026-05-25T08:19:18Z</time>
      </trkpt>
      <trkpt lat="45.41296" lon="5.55145">
        <ele>465</ele>
        <time>2026-05-25T08:19:55Z</time>
      </trkpt>
      <trkpt lat="45.41299" lon="5.55117">
        <ele>465</ele>
        <time>2026-05-25T08:20:22Z</time>
      </trkpt>
      <trkpt lat="45.41298" lon="5.55095">
        <ele>466</ele>
        <time>2026-05-25T08:20:42Z</time>
      </trkpt>
      <trkpt lat="45.41298" lon="5.5509">
        <ele>466</ele>
        <time>2026-05-25T08:20:47Z</time>
      </trkpt>
      <trkpt lat="45.41288" lon="5.54991">
        <ele>467</ele>
        <time>2026-05-25T08:22:21Z</time>
      </trkpt>
      <trkpt lat="45.41288" lon="5.54973">
        <ele>468</ele>
        <time>2026-05-25T08:22:38Z</time>
      </trkpt>
      <trkpt lat="45.41289" lon="5.5496">
        <ele>468</ele>
        <time>2026-05-25T08:22:50Z</time>
      </trkpt>
      <trkpt lat="45.41295" lon="5.54948">
        <ele>468</ele>
        <time>2026-05-25T08:23:04Z</time>
      </trkpt>
      <trkpt lat="45.41322" lon="5.5491">
        <ele>469</ele>
        <time>2026-05-25T08:23:54Z</time>
      </trkpt>
      <trkpt lat="45.41347" lon="5.54874">
        <ele>471</ele>
        <time>2026-05-25T08:24:42Z</time>
      </trkpt>
      <trkpt lat="45.41386" lon="5.54749">
        <ele>478</ele>
        <time>2026-05-25T08:26:50Z</time>
      </trkpt>
      <trkpt lat="45.41391" lon="5.54736">
        <ele>478</ele>
        <time>2026-05-25T08:27:04Z</time>
      </trkpt>
      <trkpt lat="45.41405" lon="5.54698">
        <ele>480</ele>
        <time>2026-05-25T08:27:44Z</time>
      </trkpt>
      <trkpt lat="45.41411" lon="5.54677">
        <ele>481</ele>
        <time>2026-05-25T08:28:05Z</time>
      </trkpt>
      <trkpt lat="45.41426" lon="5.54604">
        <ele>486</ele>
        <time>2026-05-25T08:29:16Z</time>
      </trkpt>
      <trkpt lat="45.41463" lon="5.54502">
        <ele>500</ele>
        <time>2026-05-25T08:31:04Z</time>
      </trkpt>
      <trkpt lat="45.41463" lon="5.54502">
        <ele>500</ele>
        <time>2026-05-25T08:31:04Z</time>
      </trkpt>
      <trkpt lat="45.41464" lon="5.54498">
        <ele>501</ele>
        <time>2026-05-25T08:31:08Z</time>
      </trkpt>
      <trkpt lat="45.41463" lon="5.54494">
        <ele>501</ele>
        <time>2026-05-25T08:31:12Z</time>
      </trkpt>
      <trkpt lat="45.41462" lon="5.54485">
        <ele>502</ele>
        <time>2026-05-25T08:31:21Z</time>
      </trkpt>
      <trkpt lat="45.41455" lon="5.54464">
        <ele>503</ele>
        <time>2026-05-25T08:31:42Z</time>
      </trkpt>
      <trkpt lat="45.41438" lon="5.54439">
        <ele>504</ele>
        <time>2026-05-25T08:32:15Z</time>
      </trkpt>
      <trkpt lat="45.41435" lon="5.5442">
        <ele>505</ele>
        <time>2026-05-25T08:32:33Z</time>
      </trkpt>
      <trkpt lat="45.41433" lon="5.54407">
        <ele>505</ele>
        <time>2026-05-25T08:32:46Z</time>
      </trkpt>
      <trkpt lat="45.41425" lon="5.54363">
        <ele>507</ele>
        <time>2026-05-25T08:33:28Z</time>
      </trkpt>
      <trkpt lat="45.41424" lon="5.54337">
        <ele>508</ele>
        <time>2026-05-25T08:33:53Z</time>
      </trkpt>
      <trkpt lat="45.41404" lon="5.54284">
        <ele>515</ele>
        <time>2026-05-25T08:34:49Z</time>
      </trkpt>
      <trkpt lat="45.41379" lon="5.54251">
        <ele>519</ele>
        <time>2026-05-25T08:35:35Z</time>
      </trkpt>
      <trkpt lat="45.41342" lon="5.5421">
        <ele>523</ele>
        <time>2026-05-25T08:36:37Z</time>
      </trkpt>
      <trkpt lat="45.41333" lon="5.54196">
        <ele>524</ele>
        <time>2026-05-25T08:36:55Z</time>
      </trkpt>
      <trkpt lat="45.41328" lon="5.54133">
        <ele>530</ele>
        <time>2026-05-25T08:37:54Z</time>
      </trkpt>
      <trkpt lat="45.41327" lon="5.54125">
        <ele>531</ele>
        <time>2026-05-25T08:38:02Z</time>
      </trkpt>
      <trkpt lat="45.41329" lon="5.54118">
        <ele>531</ele>
        <time>2026-05-25T08:38:09Z</time>
      </trkpt>
      <trkpt lat="45.41332" lon="5.54115">
        <ele>531</ele>
        <time>2026-05-25T08:38:14Z</time>
      </trkpt>
      <trkpt lat="45.41326" lon="5.54093">
        <ele>532</ele>
        <time>2026-05-25T08:38:36Z</time>
      </trkpt>
      <trkpt lat="45.41319" lon="5.54066">
        <ele>533</ele>
        <time>2026-05-25T08:39:03Z</time>
      </trkpt>
      <trkpt lat="45.41308" lon="5.54049">
        <ele>533</ele>
        <time>2026-05-25T08:39:25Z</time>
      </trkpt>
      <trkpt lat="45.413" lon="5.54031">
        <ele>534</ele>
        <time>2026-05-25T08:39:45Z</time>
      </trkpt>
      <trkpt lat="45.41278" lon="5.54003">
        <ele>533</ele>
        <time>2026-05-25T08:40:24Z</time>
      </trkpt>
      <trkpt lat="45.41274" lon="5.53995">
        <ele>534</ele>
        <time>2026-05-25T08:40:33Z</time>
      </trkpt>
      <trkpt lat="45.41269" lon="5.53985">
        <ele>534</ele>
        <time>2026-05-25T08:40:45Z</time>
      </trkpt>
      <trkpt lat="45.41265" lon="5.53962">
        <ele>534</ele>
        <time>2026-05-25T08:41:07Z</time>
      </trkpt>
      <trkpt lat="45.41269" lon="5.53935">
        <ele>536</ele>
        <time>2026-05-25T08:41:33Z</time>
      </trkpt>
      <trkpt lat="45.41271" lon="5.53926">
        <ele>536</ele>
        <time>2026-05-25T08:41:41Z</time>
      </trkpt>
      <trkpt lat="45.41276" lon="5.53905">
        <ele>537</ele>
        <time>2026-05-25T08:42:02Z</time>
      </trkpt>
      <trkpt lat="45.41272" lon="5.53856">
        <ele>536</ele>
        <time>2026-05-25T08:42:48Z</time>
      </trkpt>
      <trkpt lat="45.41265" lon="5.53813">
        <ele>535</ele>
        <time>2026-05-25T08:43:30Z</time>
      </trkpt>
      <trkpt lat="45.41235" lon="5.53761">
        <ele>533</ele>
        <time>2026-05-25T08:44:33Z</time>
      </trkpt>
      <trkpt lat="45.41222" lon="5.5373">
        <ele>533</ele>
        <time>2026-05-25T08:45:07Z</time>
      </trkpt>
      <trkpt lat="45.41202" lon="5.53691">
        <ele>533</ele>
        <time>2026-05-25T08:45:52Z</time>
      </trkpt>
      <trkpt lat="45.41199" lon="5.53678">
        <ele>534</ele>
        <time>2026-05-25T08:46:05Z</time>
      </trkpt>
      <trkpt lat="45.41198" lon="5.5365">
        <ele>534</ele>
        <time>2026-05-25T08:46:31Z</time>
      </trkpt>
      <trkpt lat="45.41213" lon="5.53575">
        <ele>535</ele>
        <time>2026-05-25T08:47:44Z</time>
      </trkpt>
      <trkpt lat="45.41214" lon="5.53544">
        <ele>532</ele>
        <time>2026-05-25T08:48:13Z</time>
      </trkpt>
      <trkpt lat="45.41212" lon="5.53506">
        <ele>529</ele>
        <time>2026-05-25T08:48:49Z</time>
      </trkpt>
      <trkpt lat="45.41226" lon="5.53445">
        <ele>523</ele>
        <time>2026-05-25T08:49:49Z</time>
      </trkpt>
      <trkpt lat="45.41215" lon="5.53424">
        <ele>520</ele>
        <time>2026-05-25T08:50:14Z</time>
      </trkpt>
      <trkpt lat="45.41174" lon="5.53393">
        <ele>513</ele>
        <time>2026-05-25T08:51:15Z</time>
      </trkpt>
      <trkpt lat="45.41121" lon="5.53386">
        <ele>513</ele>
        <time>2026-05-25T08:52:26Z</time>
      </trkpt>
      <trkpt lat="45.41109" lon="5.53384">
        <ele>513</ele>
        <time>2026-05-25T08:52:43Z</time>
      </trkpt>
      <trkpt lat="45.40956" lon="5.53384">
        <ele>504</ele>
        <time>2026-05-25T08:56:07Z</time>
      </trkpt>
      <trkpt lat="45.40946" lon="5.53383">
        <ele>503</ele>
        <time>2026-05-25T08:56:20Z</time>
      </trkpt>
      <trkpt lat="45.4094" lon="5.53379">
        <ele>501</ele>
        <time>2026-05-25T08:56:29Z</time>
      </trkpt>
      <trkpt lat="45.40936" lon="5.53374">
        <ele>499</ele>
        <time>2026-05-25T08:56:36Z</time>
      </trkpt>
      <trkpt lat="45.40936" lon="5.53368">
        <ele>498</ele>
        <time>2026-05-25T08:56:42Z</time>
      </trkpt>
      <trkpt lat="45.40921" lon="5.53372">
        <ele>497</ele>
        <time>2026-05-25T08:57:02Z</time>
      </trkpt>
      <trkpt lat="45.40881" lon="5.53386">
        <ele>498</ele>
        <time>2026-05-25T08:57:57Z</time>
      </trkpt>
      <trkpt lat="45.40834" lon="5.534">
        <ele>498</ele>
        <time>2026-05-25T08:59:01Z</time>
      </trkpt>
      <trkpt lat="45.40807" lon="5.53407">
        <ele>497</ele>
        <time>2026-05-25T08:59:38Z</time>
      </trkpt>
      <trkpt lat="45.40735" lon="5.53438">
        <ele>496</ele>
        <time>2026-05-25T09:01:18Z</time>
      </trkpt>
      <trkpt lat="45.40726" lon="5.53443">
        <ele>495</ele>
        <time>2026-05-25T09:01:31Z</time>
      </trkpt>
      <trkpt lat="45.40678" lon="5.53475">
        <ele>496</ele>
        <time>2026-05-25T09:02:42Z</time>
      </trkpt>
      <trkpt lat="45.40657" lon="5.53491">
        <ele>496</ele>
        <time>2026-05-25T09:03:14Z</time>
      </trkpt>
      <trkpt lat="45.40649" lon="5.53499">
        <ele>496</ele>
        <time>2026-05-25T09:03:27Z</time>
      </trkpt>
      <trkpt lat="45.40644" lon="5.53507">
        <ele>497</ele>
        <time>2026-05-25T09:03:37Z</time>
      </trkpt>
      <trkpt lat="45.40641" lon="5.53514">
        <ele>498</ele>
        <time>2026-05-25T09:03:44Z</time>
      </trkpt>
      <trkpt lat="45.40637" lon="5.53526">
        <ele>500</ele>
        <time>2026-05-25T09:03:57Z</time>
      </trkpt>
      <trkpt lat="45.4063" lon="5.53558">
        <ele>506</ele>
        <time>2026-05-25T09:04:28Z</time>
      </trkpt>
      <trkpt lat="45.40627" lon="5.53569">
        <ele>508</ele>
        <time>2026-05-25T09:04:39Z</time>
      </trkpt>
      <trkpt lat="45.40612" lon="5.53593">
        <ele>510</ele>
        <time>2026-05-25T09:05:09Z</time>
      </trkpt>
      <trkpt lat="45.406" lon="5.53607">
        <ele>510</ele>
        <time>2026-05-25T09:05:30Z</time>
      </trkpt>
      <trkpt lat="45.40537" lon="5.53659">
        <ele>513</ele>
        <time>2026-05-25T09:07:07Z</time>
      </trkpt>
      <trkpt lat="45.40513" lon="5.53677">
        <ele>515</ele>
        <time>2026-05-25T09:07:43Z</time>
      </trkpt>
      <trkpt lat="45.40453" lon="5.5371">
        <ele>518</ele>
        <time>2026-05-25T09:09:09Z</time>
      </trkpt>
      <trkpt lat="45.40414" lon="5.53729">
        <ele>520</ele>
        <time>2026-05-25T09:10:04Z</time>
      </trkpt>
      <trkpt lat="45.40404" lon="5.53736">
        <ele>521</ele>
        <time>2026-05-25T09:10:19Z</time>
      </trkpt>
      <trkpt lat="45.40395" lon="5.5374">
        <ele>521</ele>
        <time>2026-05-25T09:10:32Z</time>
      </trkpt>
      <trkpt lat="45.40389" lon="5.53742">
        <ele>522</ele>
        <time>2026-05-25T09:10:40Z</time>
      </trkpt>
      <trkpt lat="45.40381" lon="5.53741">
        <ele>521</ele>
        <time>2026-05-25T09:10:51Z</time>
      </trkpt>
      <trkpt lat="45.40367" lon="5.53735">
        <ele>520</ele>
        <time>2026-05-25T09:11:10Z</time>
      </trkpt>
      <trkpt lat="45.40304" lon="5.53712">
        <ele>511</ele>
        <time>2026-05-25T09:12:37Z</time>
      </trkpt>
      <trkpt lat="45.4025" lon="5.537">
        <ele>503</ele>
        <time>2026-05-25T09:13:50Z</time>
      </trkpt>
      <trkpt lat="45.40197" lon="5.53682">
        <ele>502</ele>
        <time>2026-05-25T09:15:03Z</time>
      </trkpt>
      <trkpt lat="45.40139" lon="5.53665">
        <ele>500</ele>
        <time>2026-05-25T09:16:22Z</time>
      </trkpt>
      <trkpt lat="45.40083" lon="5.5366">
        <ele>498</ele>
        <time>2026-05-25T09:17:36Z</time>
      </trkpt>
      <trkpt lat="45.40069" lon="5.53682">
        <ele>498</ele>
        <time>2026-05-25T09:18:04Z</time>
      </trkpt>
      <trkpt lat="45.40055" lon="5.53695">
        <ele>498</ele>
        <time>2026-05-25T09:18:27Z</time>
      </trkpt>
      <trkpt lat="45.40039" lon="5.53807">
        <ele>494</ele>
        <time>2026-05-25T09:20:14Z</time>
      </trkpt>
      <trkpt lat="45.40048" lon="5.53835">
        <ele>494</ele>
        <time>2026-05-25T09:20:42Z</time>
      </trkpt>
      <trkpt lat="45.40049" lon="5.53898">
        <ele>489</ele>
        <time>2026-05-25T09:21:42Z</time>
      </trkpt>
      <trkpt lat="45.40061" lon="5.53959">
        <ele>486</ele>
        <time>2026-05-25T09:22:41Z</time>
      </trkpt>
      <trkpt lat="45.40078" lon="5.54062">
        <ele>480</ele>
        <time>2026-05-25T09:24:20Z</time>
      </trkpt>
      <trkpt lat="45.40143" lon="5.54222">
        <ele>480</ele>
        <time>2026-05-25T09:27:13Z</time>
      </trkpt>
      <trkpt lat="45.40168" lon="5.54314">
        <ele>476</ele>
        <time>2026-05-25T09:28:46Z</time>
      </trkpt>
      <trkpt lat="45.40194" lon="5.54398">
        <ele>476</ele>
        <time>2026-05-25T09:30:12Z</time>
      </trkpt>
      <trkpt lat="45.40265" lon="5.54482">
        <ele>474</ele>
        <time>2026-05-25T09:32:15Z</time>
      </trkpt>
      <trkpt lat="45.40295" lon="5.54497">
        <ele>475</ele>
        <time>2026-05-25T09:32:57Z</time>
      </trkpt>
      <trkpt lat="45.40317" lon="5.54524">
        <ele>476</ele>
        <time>2026-05-25T09:33:36Z</time>
      </trkpt>
      <trkpt lat="45.40332" lon="5.54572">
        <ele>475</ele>
        <time>2026-05-25T09:34:25Z</time>
      </trkpt>
      <trkpt lat="45.40345" lon="5.54624">
        <ele>473</ele>
        <time>2026-05-25T09:35:17Z</time>
      </trkpt>
      <trkpt lat="45.40356" lon="5.54634">
        <ele>474</ele>
        <time>2026-05-25T09:35:34Z</time>
      </trkpt>
      <trkpt lat="45.40401" lon="5.54627">
        <ele>479</ele>
        <time>2026-05-25T09:36:35Z</time>
      </trkpt>
      <trkpt lat="45.40416" lon="5.54625">
        <ele>481</ele>
        <time>2026-05-25T09:36:55Z</time>
      </trkpt>
      <trkpt lat="45.40493" lon="5.54599">
        <ele>483</ele>
        <time>2026-05-25T09:38:41Z</time>
      </trkpt>
      <trkpt lat="45.4051" lon="5.54604">
        <ele>483</ele>
        <time>2026-05-25T09:39:04Z</time>
      </trkpt>
      <trkpt lat="45.40515" lon="5.54606">
        <ele>483</ele>
        <time>2026-05-25T09:39:11Z</time>
      </trkpt>
      <trkpt lat="45.40535" lon="5.54615">
        <ele>483</ele>
        <time>2026-05-25T09:39:39Z</time>
      </trkpt>
      <trkpt lat="45.40585" lon="5.54636">
        <ele>483</ele>
        <time>2026-05-25T09:40:48Z</time>
      </trkpt>
      <trkpt lat="45.40722" lon="5.54666">
        <ele>485</ele>
        <time>2026-05-25T09:43:53Z</time>
      </trkpt>
      <trkpt lat="45.4073" lon="5.54673">
        <ele>485</ele>
        <time>2026-05-25T09:44:06Z</time>
      </trkpt>
      <trkpt lat="45.40748" lon="5.54705">
        <ele>485</ele>
        <time>2026-05-25T09:44:44Z</time>
      </trkpt>
      <trkpt lat="45.4078" lon="5.54766">
        <ele>481</ele>
        <time>2026-05-25T09:45:55Z</time>
      </trkpt>
      <trkpt lat="45.4081" lon="5.5483">
        <ele>477</ele>
        <time>2026-05-25T09:47:08Z</time>
      </trkpt>
      <trkpt lat="45.40833" lon="5.54886">
        <ele>475</ele>
        <time>2026-05-25T09:48:08Z</time>
      </trkpt>
      <trkpt lat="45.40864" lon="5.5498">
        <ele>472</ele>
        <time>2026-05-25T09:49:46Z</time>
      </trkpt>
      <trkpt lat="45.40886" lon="5.55035">
        <ele>469</ele>
        <time>2026-05-25T09:50:45Z</time>
      </trkpt>
      <trkpt lat="45.40911" lon="5.55081">
        <ele>466</ele>
        <time>2026-05-25T09:51:39Z</time>
      </trkpt>
      <trkpt lat="45.40921" lon="5.551">
        <ele>465</ele>
        <time>2026-05-25T09:52:02Z</time>
      </trkpt>
      <trkpt lat="45.4094" lon="5.55128">
        <ele>466</ele>
        <time>2026-05-25T09:52:38Z</time>
      </trkpt>
      <trkpt lat="45.4096" lon="5.55168">
        <ele>468</ele>
        <time>2026-05-25T09:53:24Z</time>
      </trkpt>
      <trkpt lat="45.40975" lon="5.55211">
        <ele>470</ele>
        <time>2026-05-25T09:54:09Z</time>
      </trkpt>
      <trkpt lat="45.40977" lon="5.55219">
        <ele>470</ele>
        <time>2026-05-25T09:54:17Z</time>
      </trkpt>
      <trkpt lat="45.40985" lon="5.55232">
        <ele>471</ele>
        <time>2026-05-25T09:54:33Z</time>
      </trkpt>
      <trkpt lat="45.41007" lon="5.55256">
        <ele>472</ele>
        <time>2026-05-25T09:55:10Z</time>
      </trkpt>
      <trkpt lat="45.41023" lon="5.55274">
        <ele>472</ele>
        <time>2026-05-25T09:55:37Z</time>
      </trkpt>
      <trkpt lat="45.41019" lon="5.55284">
        <ele>472</ele>
        <time>2026-05-25T09:55:48Z</time>
      </trkpt>
      <trkpt lat="45.41056" lon="5.55324">
        <ele>473</ele>
        <time>2026-05-25T09:56:50Z</time>
      </trkpt>
      <trkpt lat="45.41131" lon="5.55404">
        <ele>471</ele>
        <time>2026-05-25T09:58:55Z</time>
      </trkpt>
      <trkpt lat="45.41136" lon="5.55396">
        <ele>471</ele>
        <time>2026-05-25T09:59:05Z</time>
      </trkpt>
      <trkpt lat="45.41138" lon="5.55399">
        <ele>471</ele>
        <time>2026-05-25T09:59:09Z</time>
      </trkpt>
      <trkpt lat="45.41145" lon="5.55405">
        <ele>471</ele>
        <time>2026-05-25T09:59:20Z</time>
      </trkpt>
      <trkpt lat="45.41174" lon="5.55441">
        <ele>471</ele>
        <time>2026-05-25T10:00:11Z</time>
      </trkpt>
      <trkpt lat="45.41207" lon="5.55503">
        <ele>471</ele>
        <time>2026-05-25T10:01:24Z</time>
      </trkpt>
      <trkpt lat="45.41205" lon="5.55512">
        <ele>471</ele>
        <time>2026-05-25T10:01:33Z</time>
      </trkpt>
      <trkpt lat="45.412" lon="5.55524">
        <ele>471</ele>
        <time>2026-05-25T10:01:46Z</time>
      </trkpt>
      <trkpt lat="45.41201" lon="5.55526">
        <ele>471</ele>
        <time>2026-05-25T10:01:48Z</time>
      </trkpt>
      <trkpt lat="45.41222" lon="5.55543">
        <ele>471</ele>
        <time>2026-05-25T10:02:21Z</time>
      </trkpt>
      <trkpt lat="45.41247" lon="5.55577">
        <ele>471</ele>
        <time>2026-05-25T10:03:07Z</time>
      </trkpt>
      <trkpt lat="45.41255" lon="5.55585">
        <ele>471</ele>
        <time>2026-05-25T10:03:20Z</time>
      </trkpt>
      <trkpt lat="45.41286" lon="5.55585">
        <ele>470</ele>
        <time>2026-05-25T10:04:01Z</time>
      </trkpt>
    </trkseg>
  </trk>
</gpx>